createdAt,value
2023-10-09T00:03:06.344Z,15.44
2023-10-09T00:06:31.561Z,15.42
2023-10-09T00:09:56.687Z,15.38
2023-10-09T00:13:21.992Z,15.36
2023-10-09T00:16:47.270Z,15.35
2023-10-09T00:20:12.479Z,15.32
2023-10-09T00:23:37.696Z,15.33
2023-10-09T00:27:02.949Z,15.36
2023-10-09T00:30:28.222Z,15.36
2023-10-09T00:33:53.445Z,15.31
2023-10-09T00:37:18.705Z,15.3
2023-10-09T00:40:43.891Z,15.27
2023-10-09T00:44:09.107Z,15.3
2023-10-09T00:47:34.351Z,15.32
2023-10-09T00:50:59.669Z,15.31
2023-10-09T00:54:24.850Z,15.31
2023-10-09T00:57:49.957Z,15.32
2023-10-09T01:01:15.196Z,15.31
2023-10-09T01:04:40.417Z,15.34
2023-10-09T01:08:05.565Z,15.36
2023-10-09T01:11:30.869Z,15.4
2023-10-09T01:14:56.061Z,15.41
2023-10-09T01:18:21.279Z,15.44
2023-10-09T01:21:46.492Z,15.47
2023-10-09T01:25:11.732Z,15.5
2023-10-09T01:28:36.986Z,15.49
2023-10-09T01:32:02.350Z,15.47
2023-10-09T01:35:27.440Z,15.46
2023-10-09T01:38:52.681Z,15.45
2023-10-09T01:42:17.922Z,15.44
2023-10-09T01:45:43.620Z,15.44
2023-10-09T01:49:08.359Z,15.43
2023-10-09T01:52:33.570Z,15.41
2023-10-09T01:55:58.779Z,15.4
2023-10-09T01:59:24.002Z,15.39
2023-10-09T02:02:49.304Z,15.36
2023-10-09T02:06:16.654Z,15.33
2023-10-09T02:09:39.707Z,15.33
2023-10-09T02:13:04.907Z,15.33
2023-10-09T02:16:30.133Z,15.33
2023-10-09T02:19:55.379Z,15.3
2023-10-09T02:23:20.559Z,15.27
2023-10-09T02:26:45.768Z,15.27
2023-10-09T02:30:11.059Z,15.28
2023-10-09T02:33:36.302Z,15.29
2023-10-09T02:37:01.501Z,15.31
2023-10-09T02:40:26.695Z,15.29
2023-10-09T02:43:52.008Z,15.32
2023-10-09T02:47:17.130Z,15.32
2023-10-09T02:50:42.357Z,15.33
2023-10-09T02:54:07.622Z,15.36
2023-10-09T02:57:32.803Z,15.34
2023-10-09T03:00:58.029Z,15.33
2023-10-09T03:04:23.274Z,15.33
2023-10-09T03:07:48.455Z,15.29
2023-10-09T03:11:13.710Z,15.28
2023-10-09T03:14:38.900Z,15.24
2023-10-09T03:18:04.146Z,15.19
2023-10-09T03:21:29.325Z,15.18
2023-10-09T03:24:54.522Z,15.17
2023-10-09T03:28:19.744Z,15.19
2023-10-09T03:31:44.921Z,15.21
2023-10-09T03:35:10.128Z,15.25
2023-10-09T03:38:36.087Z,15.24
2023-10-09T03:42:01.311Z,15.24
2023-10-09T03:45:26.731Z,15.24
2023-10-09T03:48:51.828Z,15.24
2023-10-09T03:52:16.973Z,15.22
2023-10-09T03:55:42.175Z,15.21
2023-10-09T03:59:07.391Z,15.19
2023-10-09T04:02:32.656Z,15.19
2023-10-09T04:05:57.858Z,15.21
2023-10-09T04:09:23.074Z,15.23
2023-10-09T04:12:48.287Z,15.26
2023-10-09T04:16:13.519Z,15.29
2023-10-09T04:19:38.826Z,15.33
2023-10-09T04:23:03.938Z,15.33
2023-10-09T04:26:30.286Z,15.36
2023-10-09T04:29:54.391Z,15.37
2023-10-09T04:33:19.648Z,15.38
2023-10-09T04:36:44.851Z,15.39
2023-10-09T04:40:10.080Z,15.39
2023-10-09T04:43:35.283Z,15.4
2023-10-09T04:47:00.485Z,15.43
2023-10-09T04:50:25.691Z,15.44
2023-10-09T04:53:50.949Z,15.46
2023-10-09T04:57:16.181Z,15.48
2023-10-09T05:00:41.380Z,15.51
2023-10-09T05:04:06.617Z,15.52
2023-10-09T05:07:31.833Z,15.52
2023-10-09T05:10:57.116Z,15.51
2023-10-09T05:14:22.398Z,15.52
2023-10-09T05:17:47.642Z,15.55
2023-10-09T05:21:12.870Z,15.58
2023-10-09T05:24:38.066Z,15.63
2023-10-09T05:28:03.321Z,15.66
2023-10-09T05:31:28.569Z,15.67
2023-10-09T05:34:53.835Z,15.68
2023-10-09T05:38:19.044Z,15.7
2023-10-09T05:41:44.362Z,15.7
2023-10-09T05:45:09.637Z,15.69
2023-10-09T05:48:34.904Z,15.7
2023-10-09T05:52:00.101Z,15.71
2023-10-09T05:55:25.351Z,15.73
2023-10-09T05:58:50.691Z,15.75
2023-10-09T06:02:16.002Z,15.78
2023-10-09T06:05:41.268Z,15.79
2023-10-09T06:09:06.541Z,15.8
2023-10-09T06:12:31.875Z,15.8
2023-10-09T06:15:57.153Z,15.8
2023-10-09T06:19:22.800Z,15.81
2023-10-09T06:22:48.048Z,15.82
2023-10-09T06:26:13.301Z,15.84
2023-10-09T06:29:38.566Z,15.87
2023-10-09T06:33:03.934Z,15.89
2023-10-09T06:36:29.237Z,15.93
2023-10-09T06:39:54.384Z,15.96
2023-10-09T06:43:19.639Z,15.98
2023-10-09T06:46:45.049Z,15.99
2023-10-09T06:50:10.376Z,16.040001
2023-10-09T06:53:35.717Z,16.07
2023-10-09T06:57:08.200Z,16.120001
2023-10-09T07:00:33.657Z,16.17
2023-10-09T07:03:58.970Z,16.219999
2023-10-09T07:07:24.235Z,16.27
2023-10-09T07:10:49.494Z,16.32
2023-10-09T07:14:14.872Z,16.34
2023-10-09T07:17:39.981Z,16.41
2023-10-09T07:21:05.280Z,16.459999
2023-10-09T07:24:30.730Z,16.49
2023-10-09T07:27:55.950Z,16.52
2023-10-09T07:31:21.215Z,16.559999
2023-10-09T07:34:46.432Z,16.610001
2023-10-09T07:38:11.750Z,16.610001
2023-10-09T07:41:37.041Z,16.610001
2023-10-09T07:45:02.284Z,16.620001
2023-10-09T07:48:27.530Z,16.639999
2023-10-09T07:51:52.748Z,16.68
2023-10-09T07:55:18.132Z,16.700001
2023-10-09T07:58:43.421Z,16.700001
2023-10-09T08:02:08.728Z,16.700001
2023-10-09T08:05:33.877Z,16.719999
2023-10-09T08:08:59.074Z,16.719999
2023-10-09T08:12:24.299Z,16.709999
2023-10-09T08:15:49.577Z,16.690001
2023-10-09T08:19:14.827Z,16.67
2023-10-09T08:22:39.902Z,16.65
2023-10-09T08:26:05.140Z,16.629999
2023-10-09T08:29:30.360Z,16.620001
2023-10-09T08:34:15.127Z,16.629999
2023-10-09T08:36:20.938Z,16.65
2023-10-09T08:39:46.042Z,16.66
2023-10-09T08:43:11.344Z,16.68
2023-10-09T08:46:36.609Z,16.700001
2023-10-09T08:50:01.854Z,16.719999
2023-10-09T08:53:27.197Z,16.76
2023-10-09T08:56:52.473Z,16.77
2023-10-09T09:00:17.726Z,16.76
2023-10-09T09:03:43.017Z,16.76
2023-10-09T09:07:08.297Z,16.790001
2023-10-09T09:10:33.530Z,16.799999
2023-10-09T09:13:58.807Z,16.799999
2023-10-09T09:17:23.985Z,16.85
2023-10-09T09:20:49.156Z,16.879999
2023-10-09T09:24:14.408Z,16.93
2023-10-09T09:27:39.649Z,16.98
2023-10-09T09:31:04.870Z,17.040001
2023-10-09T09:34:30.065Z,17.09
2023-10-09T09:37:55.324Z,17.129999
2023-10-09T09:41:20.626Z,17.17
2023-10-09T09:44:46.483Z,17.200001
2023-10-09T09:48:11.812Z,17.26
2023-10-09T09:51:37.249Z,17.280001
2023-10-09T09:55:02.556Z,17.299999
2023-10-09T09:58:27.959Z,17.33
2023-10-09T10:01:53.276Z,17.33
2023-10-09T10:05:18.463Z,17.32
2023-10-09T10:08:43.786Z,17.299999
2023-10-09T10:12:09.060Z,17.34
2023-10-09T10:15:34.311Z,17.360001
2023-10-09T10:18:59.633Z,17.379999
2023-10-09T10:22:24.891Z,17.379999
2023-10-09T10:25:50.285Z,17.41
2023-10-09T10:29:15.627Z,17.379999
2023-10-09T10:32:40.801Z,17.360001
2023-10-09T10:36:06.123Z,17.360001
2023-10-09T10:39:31.384Z,17.370001
2023-10-09T10:42:56.647Z,17.379999
2023-10-09T10:46:21.942Z,17.389999
2023-10-09T10:49:47.204Z,17.379999
2023-10-09T10:53:12.745Z,17.379999
2023-10-09T10:56:37.914Z,17.360001
2023-10-09T11:00:03.202Z,17.360001
2023-10-09T11:03:28.693Z,17.360001
2023-10-09T11:06:53.676Z,17.32
2023-10-09T11:10:18.979Z,17.290001
2023-10-09T11:13:44.234Z,17.25
2023-10-09T11:17:09.461Z,17.219999
2023-10-09T11:20:34.747Z,17.209999
2023-10-09T11:24:00.073Z,17.25
2023-10-09T11:27:25.321Z,17.27
2023-10-09T11:30:50.564Z,17.26
2023-10-09T11:34:16.112Z,17.24
2023-10-09T11:37:44.467Z,17.26
2023-10-09T11:41:10.022Z,17.24
2023-10-09T11:44:35.298Z,17.219999
2023-10-09T11:48:00.809Z,17.17
2023-10-09T11:51:25.797Z,17.18
2023-10-09T11:54:51.113Z,17.190001
2023-10-09T11:58:16.357Z,17.17
2023-10-09T12:01:56.903Z,17.15
2023-10-09T12:05:22.126Z,17.120001
2023-10-09T12:08:47.400Z,17.110001
2023-10-09T12:12:12.640Z,17.09
2023-10-09T12:15:37.931Z,17.1
2023-10-09T12:19:03.305Z,17.1
2023-10-09T12:22:28.791Z,17.1
2023-10-09T12:25:53.987Z,17.08
2023-10-09T12:29:19.246Z,17.059999
2023-10-09T12:32:44.562Z,17.02
2023-10-09T12:36:09.866Z,16.99
2023-10-09T12:39:35.254Z,16.98
2023-10-09T12:43:00.521Z,16.98
2023-10-09T12:46:25.806Z,17
2023-10-09T12:49:51.078Z,17.049999
2023-10-09T12:53:16.494Z,17.09
2023-10-09T12:56:41.747Z,17.16
2023-10-09T13:00:07.086Z,17.200001
2023-10-09T13:03:32.460Z,17.26
2023-10-09T13:06:57.601Z,17.23
2023-10-09T13:10:22.849Z,17.190001
2023-10-09T13:13:48.121Z,17.15
2023-10-09T13:17:13.372Z,17.18
2023-10-09T13:20:38.615Z,17.18
2023-10-09T13:24:03.829Z,17.18
2023-10-09T13:27:29.085Z,17.18
2023-10-09T13:30:54.298Z,17.17
2023-10-09T13:34:19.570Z,17.17
2023-10-09T13:37:44.830Z,17.129999
2023-10-09T13:41:10.187Z,17.120001
2023-10-09T13:44:35.430Z,17.120001
2023-10-09T13:48:00.681Z,17.129999
2023-10-09T13:51:25.890Z,17.139999
2023-10-09T13:54:51.163Z,17.120001
2023-10-09T13:58:16.386Z,17.120001
2023-10-09T14:01:41.734Z,17.120001
2023-10-09T14:05:06.877Z,17.120001
2023-10-09T14:08:32.111Z,17.08
2023-10-09T14:11:57.382Z,17.01
2023-10-09T14:15:22.609Z,16.959999
2023-10-09T14:18:47.895Z,16.950001
2023-10-09T14:22:13.078Z,16.93
2023-10-09T14:25:38.569Z,16.91
2023-10-09T14:29:03.631Z,16.9
2023-10-09T14:32:28.933Z,16.889999
2023-10-09T14:35:54.234Z,16.889999
2023-10-09T14:39:19.504Z,16.9
2023-10-09T14:42:44.876Z,16.950001
2023-10-09T14:46:10.238Z,16.98
2023-10-09T14:49:35.670Z,17.01
2023-10-09T14:53:00.997Z,17.030001
2023-10-09T14:56:26.242Z,17.030001
2023-10-09T14:59:51.535Z,17.01
2023-10-09T15:03:16.800Z,16.98
2023-10-09T15:06:42.078Z,16.959999
2023-10-09T15:10:07.457Z,16.950001
2023-10-09T15:46:03.977Z,14.85
2023-10-09T15:49:29.160Z,15.86
2023-10-09T15:52:54.551Z,16.09
2023-10-09T15:56:19.761Z,16.309999
2023-10-09T16:01:01.934Z,15.82
2023-10-09T16:04:27.324Z,16.66
2023-10-09T16:07:52.495Z,16.790001
2023-10-09T16:11:17.741Z,16.870001
2023-10-09T16:14:43.448Z,16.940001
2023-10-09T16:18:09.185Z,17.02
2023-10-09T16:21:35.184Z,17.040001
2023-10-09T16:25:00.449Z,17.059999
2023-10-09T16:28:25.856Z,17.08
2023-10-09T16:31:51.223Z,17.1
2023-10-09T16:35:16.591Z,17.129999
2023-10-09T16:38:41.918Z,17.17
2023-10-09T16:42:07.102Z,17.209999
2023-10-09T16:45:32.368Z,17.27
2023-10-09T16:49:00.613Z,17.309999
2023-10-09T16:52:26.039Z,17.34
2023-10-09T16:55:52.032Z,17.379999
2023-10-09T16:59:17.394Z,17.4
2023-10-09T17:02:42.633Z,17.42
2023-10-09T17:06:07.726Z,17.440001
2023-10-09T17:09:32.938Z,17.459999
2023-10-09T17:12:58.182Z,17.459999
2023-10-09T17:16:23.395Z,17.49
2023-10-09T17:19:48.636Z,17.5
2023-10-09T17:23:14.200Z,17.52
2023-10-09T17:26:39.505Z,17.530001
2023-10-09T17:30:04.851Z,17.540001
2023-10-09T17:33:30.107Z,17.57
2023-10-09T17:36:57.514Z,17.58
2023-10-09T17:40:24.673Z,17.59
2023-10-09T17:43:50.076Z,17.59
2023-10-09T17:47:15.517Z,17.6
2023-10-09T17:50:40.810Z,17.610001
2023-10-09T17:54:06.169Z,17.610001
2023-10-09T17:58:03.305Z,17.59
2023-10-09T18:01:28.577Z,17.58
2023-10-09T18:04:53.997Z,17.58
2023-10-09T18:08:19.294Z,17.58
2023-10-09T18:11:44.625Z,17.59
2023-10-09T18:15:10.749Z,17.57
2023-10-09T18:18:36.232Z,17.530001
2023-10-09T18:22:02.192Z,17.48
2023-10-09T18:25:28.193Z,17.440001
2023-10-09T18:28:53.483Z,17.4
2023-10-09T18:32:18.855Z,17.389999
2023-10-09T18:35:44.154Z,17.379999
2023-10-09T18:39:09.591Z,17.360001
2023-10-09T18:42:34.753Z,17.33
2023-10-09T18:46:00.009Z,17.290001
2023-10-09T18:49:25.303Z,17.26
2023-10-09T18:52:50.653Z,17.24
2023-10-09T18:56:15.961Z,17.25
2023-10-09T18:59:41.222Z,17.25
2023-10-09T19:03:06.511Z,17.24
2023-10-09T19:06:31.815Z,17.23
2023-10-09T19:09:57.083Z,17.209999
2023-10-09T19:13:22.415Z,17.190001
2023-10-09T19:16:47.834Z,17.18
2023-10-09T19:20:13.041Z,17.15
2023-10-09T19:23:38.316Z,17.110001
2023-10-09T19:27:03.572Z,17.110001
2023-10-09T19:30:28.949Z,17.09
2023-10-09T19:33:54.210Z,17.040001
2023-10-09T19:37:19.527Z,16.99
2023-10-09T19:40:44.839Z,16.969999
2023-10-09T19:44:10.223Z,16.950001
2023-10-09T19:47:35.560Z,16.92
2023-10-09T19:51:00.822Z,16.879999
2023-10-09T19:54:26.130Z,16.84
2023-10-09T19:57:51.439Z,16.809999
2023-10-09T20:01:16.763Z,16.780001
2023-10-09T20:04:42.097Z,16.76
2023-10-09T20:08:07.388Z,16.75
2023-10-09T20:11:32.691Z,16.709999
2023-10-09T20:14:57.948Z,16.68
2023-10-09T20:18:23.333Z,16.66
2023-10-09T20:21:48.709Z,16.639999
2023-10-09T20:25:14.113Z,16.620001
2023-10-09T20:28:39.307Z,16.6
2023-10-09T20:32:04.674Z,16.629999
2023-10-09T20:35:29.939Z,16.620001
2023-10-09T20:38:55.335Z,16.65
2023-10-09T20:42:20.613Z,16.65
2023-10-09T20:45:45.923Z,16.67
2023-10-09T20:49:11.137Z,16.68
2023-10-09T20:52:36.396Z,16.690001
2023-10-09T20:56:01.674Z,16.709999
2023-10-09T20:59:26.857Z,16.709999
2023-10-09T21:02:52.087Z,16.709999
2023-10-09T21:06:17.217Z,16.719999
2023-10-09T21:09:42.440Z,16.719999
2023-10-09T21:13:07.686Z,16.709999
2023-10-09T21:16:32.974Z,16.700001
2023-10-09T21:19:58.091Z,16.68
2023-10-09T21:23:23.350Z,16.68
2023-10-09T21:26:48.524Z,16.66
2023-10-09T21:30:13.773Z,16.65
2023-10-09T21:33:38.950Z,16.66
2023-10-09T21:37:04.159Z,16.690001
2023-10-09T21:40:29.850Z,16.700001
2023-10-09T21:43:55.286Z,16.709999
2023-10-09T21:47:19.824Z,16.74
2023-10-09T21:50:44.993Z,16.77
2023-10-09T21:54:10.206Z,16.780001
2023-10-09T21:57:35.406Z,16.809999
2023-10-09T22:01:00.613Z,16.799999
2023-10-09T22:04:25.874Z,16.809999
2023-10-09T22:07:51.115Z,16.82
2023-10-09T22:11:16.298Z,16.809999
2023-10-09T22:14:41.469Z,16.799999
2023-10-09T22:18:06.738Z,16.790001
2023-10-09T22:21:32.244Z,16.780001
2023-10-09T22:24:57.413Z,16.77
2023-10-09T22:28:22.600Z,16.780001
2023-10-09T22:31:47.933Z,16.76
2023-10-09T22:35:13.056Z,16.73
2023-10-09T22:38:38.295Z,16.719999
2023-10-09T22:42:03.502Z,16.73
2023-10-09T22:45:28.707Z,16.73
2023-10-09T22:48:53.969Z,16.73
2023-10-09T22:52:19.139Z,16.76
2023-10-09T22:55:44.373Z,16.77
2023-10-09T22:59:09.588Z,16.790001
2023-10-09T23:02:34.889Z,16.780001
2023-10-09T23:06:00.025Z,16.790001
2023-10-09T23:09:25.166Z,16.790001
2023-10-09T23:12:50.408Z,16.82
2023-10-09T23:16:15.638Z,16.809999
2023-10-09T23:19:40.793Z,16.82
2023-10-09T23:23:06.008Z,16.82
2023-10-09T23:26:31.220Z,16.84
2023-10-09T23:29:56.411Z,16.85
2023-10-09T23:33:22.106Z,16.85
2023-10-09T23:36:46.812Z,16.870001
2023-10-09T23:40:12.028Z,16.860001
2023-10-09T23:43:37.225Z,16.85
2023-10-09T23:47:02.488Z,16.889999
2023-10-09T23:50:27.627Z,16.9
2023-10-09T23:53:52.828Z,16.93
2023-10-09T23:57:18.025Z,16.93
